sensor_id;sensor_type;location;lat;lon;timestamp;P1;durP1;ratioP1;P2;durP2;ratioP2
59145;SDS011;44928;53.074;6.646;2023-08-31T00:00:41;6.93;;;2.40;;
59145;SDS011;44928;53.074;6.646;2023-08-31T00:03:07;6.30;;;2.20;;
59145;SDS011;44928;53.074;6.646;2023-08-31T00:05:41;9.80;;;2.22;;
59145;SDS011;44928;53.074;6.646;2023-08-31T00:08:08;6.85;;;2.35;;
59145;SDS011;44928;53.074;6.646;2023-08-31T00:10:36;9.35;;;2.50;;
59145;SDS011;44928;53.074;6.646;2023-08-31T00:13:03;7.35;;;2.33;;
59145;SDS011;44928;53.074;6.646;2023-08-31T00:15:30;5.82;;;2.15;;
59145;SDS011;44928;53.074;6.646;2023-08-31T00:17:58;7.15;;;1.90;;
59145;SDS011;44928;53.074;6.646;2023-08-31T00:20:24;6.05;;;1.85;;
59145;SDS011;44928;53.074;6.646;2023-08-31T00:22:51;8.80;;;2.17;;
59145;SDS011;44928;53.074;6.646;2023-08-31T00:25:17;7.03;;;1.90;;
59145;SDS011;44928;53.074;6.646;2023-08-31T00:27:43;5.95;;;2.13;;
59145;SDS011;44928;53.074;6.646;2023-08-31T00:30:13;6.80;;;1.90;;
59145;SDS011;44928;53.074;6.646;2023-08-31T00:32:40;10.13;;;2.05;;
59145;SDS011;44928;53.074;6.646;2023-08-31T00:35:08;8.95;;;1.80;;
59145;SDS011;44928;53.074;6.646;2023-08-31T00:37:34;6.38;;;1.80;;
59145;SDS011;44928;53.074;6.646;2023-08-31T00:40:00;6.70;;;1.60;;
59145;SDS011;44928;53.074;6.646;2023-08-31T00:42:26;6.50;;;1.60;;
59145;SDS011;44928;53.074;6.646;2023-08-31T00:44:54;7.03;;;1.48;;
59145;SDS011;44928;53.074;6.646;2023-08-31T00:47:20;6.15;;;1.55;;
59145;SDS011;44928;53.074;6.646;2023-08-31T00:49:46;6.05;;;1.52;;
59145;SDS011;44928;53.074;6.646;2023-08-31T00:52:13;8.32;;;1.80;;
59145;SDS011;44928;53.074;6.646;2023-08-31T00:54:39;7.00;;;1.55;;
59145;SDS011;44928;53.074;6.646;2023-08-31T00:57:07;6.30;;;1.50;;
59145;SDS011;44928;53.074;6.646;2023-08-31T00:59:34;7.18;;;1.55;;
59145;SDS011;44928;53.074;6.646;2023-08-31T01:02:07;6.38;;;1.35;;
59145;SDS011;44928;53.074;6.646;2023-08-31T01:07:34;7.72;;;1.70;;
59145;SDS011;44928;53.074;6.646;2023-08-31T01:15:18;5.10;;;1.65;;
59145;SDS011;44928;53.074;6.646;2023-08-31T01:17:49;5.68;;;1.50;;
59145;SDS011;44928;53.074;6.646;2023-08-31T01:20:29;5.72;;;1.67;;
59145;SDS011;44928;53.074;6.646;2023-08-31T01:23:09;9.00;;;1.80;;
59145;SDS011;44928;53.074;6.646;2023-08-31T01:25:38;7.68;;;1.58;;
59145;SDS011;44928;53.074;6.646;2023-08-31T01:28:07;5.90;;;1.55;;
59145;SDS011;44928;53.074;6.646;2023-08-31T01:30:35;5.82;;;1.77;;
59145;SDS011;44928;53.074;6.646;2023-08-31T01:33:01;4.85;;;1.25;;
59145;SDS011;44928;53.074;6.646;2023-08-31T01:35:27;5.28;;;1.50;;
59145;SDS011;44928;53.074;6.646;2023-08-31T01:38:11;4.63;;;1.40;;
59145;SDS011;44928;53.074;6.646;2023-08-31T01:40:47;5.22;;;1.40;;
59145;SDS011;44928;53.074;6.646;2023-08-31T01:43:21;5.80;;;1.52;;
59145;SDS011;44928;53.074;6.646;2023-08-31T01:45:48;7.05;;;1.40;;
59145;SDS011;44928;53.074;6.646;2023-08-31T01:48:14;7.28;;;1.83;;
59145;SDS011;44928;53.074;6.646;2023-08-31T01:50:40;4.93;;;1.52;;
59145;SDS011;44928;53.074;6.646;2023-08-31T01:53:06;4.53;;;1.40;;
59145;SDS011;44928;53.074;6.646;2023-08-31T01:55:32;6.13;;;1.50;;
59145;SDS011;44928;53.074;6.646;2023-08-31T01:57:58;4.13;;;1.50;;
59145;SDS011;44928;53.074;6.646;2023-08-31T02:00:24;5.03;;;1.20;;
59145;SDS011;44928;53.074;6.646;2023-08-31T02:02:50;6.20;;;1.40;;
59145;SDS011;44928;53.074;6.646;2023-08-31T02:05:16;4.15;;;1.23;;
59145;SDS011;44928;53.074;6.646;2023-08-31T02:07:42;5.10;;;1.55;;
59145;SDS011;44928;53.074;6.646;2023-08-31T02:10:08;4.30;;;1.50;;
59145;SDS011;44928;53.074;6.646;2023-08-31T02:12:34;6.13;;;1.23;;
59145;SDS011;44928;53.074;6.646;2023-08-31T02:15:04;6.43;;;1.25;;
59145;SDS011;44928;53.074;6.646;2023-08-31T02:17:31;8.02;;;1.30;;
59145;SDS011;44928;53.074;6.646;2023-08-31T02:19:57;4.53;;;1.42;;
59145;SDS011;44928;53.074;6.646;2023-08-31T02:22:23;4.32;;;1.30;;
59145;SDS011;44928;53.074;6.646;2023-08-31T02:24:48;6.00;;;1.45;;
59145;SDS011;44928;53.074;6.646;2023-08-31T02:27:14;4.40;;;1.30;;
59145;SDS011;44928;53.074;6.646;2023-08-31T02:29:40;5.47;;;1.30;;
59145;SDS011;44928;53.074;6.646;2023-08-31T02:32:06;4.55;;;1.40;;
59145;SDS011;44928;53.074;6.646;2023-08-31T02:34:32;4.88;;;1.20;;
59145;SDS011;44928;53.074;6.646;2023-08-31T02:36:58;6.40;;;1.40;;
59145;SDS011;44928;53.074;6.646;2023-08-31T02:39:24;7.70;;;1.40;;
59145;SDS011;44928;53.074;6.646;2023-08-31T02:41:50;4.80;;;1.20;;
59145;SDS011;44928;53.074;6.646;2023-08-31T02:44:15;6.28;;;1.60;;
59145;SDS011;44928;53.074;6.646;2023-08-31T02:46:41;12.00;;;1.73;;
59145;SDS011;44928;53.074;6.646;2023-08-31T02:49:07;4.70;;;1.23;;
59145;SDS011;44928;53.074;6.646;2023-08-31T02:51:33;5.93;;;1.60;;
59145;SDS011;44928;53.074;6.646;2023-08-31T02:53:59;10.05;;;1.60;;
59145;SDS011;44928;53.074;6.646;2023-08-31T02:56:24;6.22;;;1.10;;
59145;SDS011;44928;53.074;6.646;2023-08-31T02:58:50;6.25;;;1.35;;
59145;SDS011;44928;53.074;6.646;2023-08-31T03:01:16;4.47;;;1.25;;
59145;SDS011;44928;53.074;6.646;2023-08-31T03:03:42;6.00;;;1.27;;
59145;SDS011;44928;53.074;6.646;2023-08-31T03:06:10;3.42;;;1.20;;
59145;SDS011;44928;53.074;6.646;2023-08-31T03:08:37;4.70;;;1.40;;
59145;SDS011;44928;53.074;6.646;2023-08-31T03:11:03;6.45;;;1.52;;
59145;SDS011;44928;53.074;6.646;2023-08-31T03:13:33;4.70;;;1.58;;
59145;SDS011;44928;53.074;6.646;2023-08-31T03:15:59;4.97;;;1.50;;
59145;SDS011;44928;53.074;6.646;2023-08-31T03:18:26;5.13;;;1.30;;
59145;SDS011;44928;53.074;6.646;2023-08-31T03:20:52;6.22;;;1.35;;
59145;SDS011;44928;53.074;6.646;2023-08-31T03:23:19;6.80;;;1.40;;
59145;SDS011;44928;53.074;6.646;2023-08-31T03:25:45;5.40;;;1.80;;
59145;SDS011;44928;53.074;6.646;2023-08-31T03:28:11;4.85;;;1.60;;
59145;SDS011;44928;53.074;6.646;2023-08-31T03:30:37;5.03;;;1.50;;
59145;SDS011;44928;53.074;6.646;2023-08-31T03:33:03;5.95;;;1.50;;
59145;SDS011;44928;53.074;6.646;2023-08-31T03:35:29;5.18;;;1.52;;
59145;SDS011;44928;53.074;6.646;2023-08-31T03:37:56;5.97;;;1.80;;
59145;SDS011;44928;53.074;6.646;2023-08-31T03:40:22;6.97;;;2.10;;
59145;SDS011;44928;53.074;6.646;2023-08-31T03:42:48;4.80;;;1.90;;
59145;SDS011;44928;53.074;6.646;2023-08-31T03:45:15;7.18;;;2.15;;
59145;SDS011;44928;53.074;6.646;2023-08-31T03:47:41;13.05;;;2.25;;
59145;SDS011;44928;53.074;6.646;2023-08-31T03:50:07;6.07;;;1.98;;
59145;SDS011;44928;53.074;6.646;2023-08-31T03:52:33;7.47;;;2.10;;
59145;SDS011;44928;53.074;6.646;2023-08-31T03:54:59;4.25;;;1.60;;
59145;SDS011;44928;53.074;6.646;2023-08-31T03:57:25;5.15;;;2.08;;
59145;SDS011;44928;53.074;6.646;2023-08-31T03:59:51;9.85;;;1.95;;
59145;SDS011;44928;53.074;6.646;2023-08-31T04:02:17;6.45;;;2.20;;
59145;SDS011;44928;53.074;6.646;2023-08-31T04:04:43;5.78;;;2.00;;
59145;SDS011;44928;53.074;6.646;2023-08-31T04:07:09;6.22;;;1.88;;
59145;SDS011;44928;53.074;6.646;2023-08-31T04:09:35;6.53;;;2.20;;
59145;SDS011;44928;53.074;6.646;2023-08-31T04:12:00;8.45;;;2.17;;
59145;SDS011;44928;53.074;6.646;2023-08-31T04:14:26;7.00;;;2.28;;
59145;SDS011;44928;53.074;6.646;2023-08-31T04:16:54;7.65;;;2.33;;
59145;SDS011;44928;53.074;6.646;2023-08-31T04:19:20;8.80;;;2.60;;
59145;SDS011;44928;53.074;6.646;2023-08-31T04:21:46;8.07;;;2.72;;
59145;SDS011;44928;53.074;6.646;2023-08-31T04:24:12;8.43;;;2.90;;
59145;SDS011;44928;53.074;6.646;2023-08-31T04:26:38;8.50;;;3.10;;
59145;SDS011;44928;53.074;6.646;2023-08-31T04:29:04;8.25;;;3.15;;
59145;SDS011;44928;53.074;6.646;2023-08-31T04:31:31;8.95;;;2.92;;
59145;SDS011;44928;53.074;6.646;2023-08-31T04:33:57;9.40;;;3.00;;
59145;SDS011;44928;53.074;6.646;2023-08-31T04:36:23;9.32;;;3.75;;
59145;SDS011;44928;53.074;6.646;2023-08-31T04:38:51;9.52;;;3.80;;
59145;SDS011;44928;53.074;6.646;2023-08-31T04:41:17;10.48;;;4.32;;
59145;SDS011;44928;53.074;6.646;2023-08-31T04:43:44;8.32;;;3.88;;
59145;SDS011;44928;53.074;6.646;2023-08-31T04:46:14;12.60;;;4.40;;
59145;SDS011;44928;53.074;6.646;2023-08-31T04:48:40;8.57;;;4.13;;
59145;SDS011;44928;53.074;6.646;2023-08-31T04:51:05;8.57;;;4.53;;
59145;SDS011;44928;53.074;6.646;2023-08-31T04:53:31;8.73;;;4.60;;
59145;SDS011;44928;53.074;6.646;2023-08-31T04:55:57;10.13;;;5.22;;
59145;SDS011;44928;53.074;6.646;2023-08-31T04:58:23;10.48;;;5.30;;
59145;SDS011;44928;53.074;6.646;2023-08-31T05:00:51;10.77;;;5.95;;
59145;SDS011;44928;53.074;6.646;2023-08-31T05:03:17;9.55;;;5.60;;
59145;SDS011;44928;53.074;6.646;2023-08-31T05:05:43;8.45;;;5.65;;
59145;SDS011;44928;53.074;6.646;2023-08-31T05:08:09;9.52;;;6.05;;
59145;SDS011;44928;53.074;6.646;2023-08-31T05:10:35;12.38;;;5.80;;
59145;SDS011;44928;53.074;6.646;2023-08-31T05:13:01;11.52;;;6.00;;
59145;SDS011;44928;53.074;6.646;2023-08-31T05:15:29;9.75;;;5.75;;
59145;SDS011;44928;53.074;6.646;2023-08-31T05:17:55;12.60;;;6.35;;
59145;SDS011;44928;53.074;6.646;2023-08-31T05:20:21;10.25;;;6.20;;
59145;SDS011;44928;53.074;6.646;2023-08-31T05:22:50;13.45;;;6.28;;
59145;SDS011;44928;53.074;6.646;2023-08-31T05:25:16;11.63;;;5.90;;
59145;SDS011;44928;53.074;6.646;2023-08-31T05:27:42;11.43;;;5.57;;
59145;SDS011;44928;53.074;6.646;2023-08-31T05:30:08;14.85;;;6.47;;
59145;SDS011;44928;53.074;6.646;2023-08-31T05:32:34;13.35;;;6.30;;
59145;SDS011;44928;53.074;6.646;2023-08-31T05:35:00;13.45;;;6.60;;
59145;SDS011;44928;53.074;6.646;2023-08-31T05:37:26;15.95;;;7.45;;
59145;SDS011;44928;53.074;6.646;2023-08-31T05:39:52;11.60;;;6.30;;
59145;SDS011;44928;53.074;6.646;2023-08-31T05:42:17;9.90;;;5.63;;
59145;SDS011;44928;53.074;6.646;2023-08-31T05:44:43;10.32;;;6.18;;
59145;SDS011;44928;53.074;6.646;2023-08-31T05:47:10;12.05;;;6.32;;
59145;SDS011;44928;53.074;6.646;2023-08-31T05:49:35;11.07;;;5.80;;
59145;SDS011;44928;53.074;6.646;2023-08-31T05:52:01;12.63;;;6.10;;
59145;SDS011;44928;53.074;6.646;2023-08-31T05:54:27;11.93;;;5.93;;
59145;SDS011;44928;53.074;6.646;2023-08-31T05:56:53;12.43;;;5.47;;
59145;SDS011;44928;53.074;6.646;2023-08-31T05:59:19;12.40;;;5.80;;
59145;SDS011;44928;53.074;6.646;2023-08-31T06:01:46;10.65;;;5.28;;
59145;SDS011;44928;53.074;6.646;2023-08-31T06:04:12;10.15;;;5.53;;
59145;SDS011;44928;53.074;6.646;2023-08-31T06:06:37;11.65;;;5.18;;
59145;SDS011;44928;53.074;6.646;2023-08-31T06:09:04;8.63;;;4.70;;
59145;SDS011;44928;53.074;6.646;2023-08-31T06:11:31;10.43;;;4.72;;
59145;SDS011;44928;53.074;6.646;2023-08-31T06:13:57;10.48;;;4.43;;
59145;SDS011;44928;53.074;6.646;2023-08-31T06:16:23;11.18;;;5.07;;
59145;SDS011;44928;53.074;6.646;2023-08-31T06:18:49;11.77;;;5.07;;
59145;SDS011;44928;53.074;6.646;2023-08-31T06:21:15;13.65;;;5.20;;
59145;SDS011;44928;53.074;6.646;2023-08-31T06:23:41;10.30;;;4.60;;
59145;SDS011;44928;53.074;6.646;2023-08-31T06:26:07;8.20;;;3.78;;
59145;SDS011;44928;53.074;6.646;2023-08-31T06:28:32;12.13;;;4.40;;
59145;SDS011;44928;53.074;6.646;2023-08-31T06:30:59;9.95;;;4.18;;
59145;SDS011;44928;53.074;6.646;2023-08-31T06:33:24;11.40;;;3.88;;
59145;SDS011;44928;53.074;6.646;2023-08-31T06:35:50;12.60;;;3.58;;
59145;SDS011;44928;53.074;6.646;2023-08-31T06:38:19;10.20;;;3.97;;
59145;SDS011;44928;53.074;6.646;2023-08-31T06:40:46;8.45;;;3.30;;
59145;SDS011;44928;53.074;6.646;2023-08-31T06:43:12;12.95;;;3.60;;
59145;SDS011;44928;53.074;6.646;2023-08-31T06:45:38;9.93;;;3.20;;
59145;SDS011;44928;53.074;6.646;2023-08-31T06:48:05;8.18;;;3.25;;
59145;SDS011;44928;53.074;6.646;2023-08-31T06:50:32;7.13;;;3.22;;
59145;SDS011;44928;53.074;6.646;2023-08-31T06:53:00;7.78;;;2.80;;
59145;SDS011;44928;53.074;6.646;2023-08-31T06:55:26;7.35;;;2.70;;
59145;SDS011;44928;53.074;6.646;2023-08-31T06:57:52;9.90;;;3.20;;
59145;SDS011;44928;53.074;6.646;2023-08-31T07:00:18;7.88;;;2.97;;
59145;SDS011;44928;53.074;6.646;2023-08-31T07:02:44;11.00;;;2.60;;
59145;SDS011;44928;53.074;6.646;2023-08-31T07:05:10;8.75;;;2.67;;
59145;SDS011;44928;53.074;6.646;2023-08-31T07:07:36;8.60;;;2.40;;
59145;SDS011;44928;53.074;6.646;2023-08-31T07:10:02;7.65;;;2.03;;
59145;SDS011;44928;53.074;6.646;2023-08-31T07:12:31;7.70;;;1.90;;
59145;SDS011;44928;53.074;6.646;2023-08-31T07:14:56;7.18;;;1.80;;
59145;SDS011;44928;53.074;6.646;2023-08-31T07:17:22;7.95;;;2.10;;
59145;SDS011;44928;53.074;6.646;2023-08-31T07:19:48;10.60;;;2.38;;
59145;SDS011;44928;53.074;6.646;2023-08-31T07:22:14;6.13;;;1.80;;
59145;SDS011;44928;53.074;6.646;2023-08-31T07:24:40;7.22;;;2.00;;
59145;SDS011;44928;53.074;6.646;2023-08-31T07:27:06;5.45;;;1.50;;
59145;SDS011;44928;53.074;6.646;2023-08-31T07:29:31;6.50;;;1.70;;
59145;SDS011;44928;53.074;6.646;2023-08-31T07:31:58;8.65;;;1.60;;
59145;SDS011;44928;53.074;6.646;2023-08-31T07:34:24;6.32;;;1.30;;
59145;SDS011;44928;53.074;6.646;2023-08-31T07:36:50;4.82;;;1.52;;
59145;SDS011;44928;53.074;6.646;2023-08-31T07:39:16;6.25;;;1.20;;
59145;SDS011;44928;53.074;6.646;2023-08-31T07:41:45;6.63;;;1.33;;
59145;SDS011;44928;53.074;6.646;2023-08-31T07:44:10;5.28;;;1.25;;
59145;SDS011;44928;53.074;6.646;2023-08-31T07:46:36;6.78;;;1.23;;
59145;SDS011;44928;53.074;6.646;2023-08-31T07:49:02;3.90;;;1.02;;
59145;SDS011;44928;53.074;6.646;2023-08-31T07:51:29;5.22;;;1.20;;
59145;SDS011;44928;53.074;6.646;2023-08-31T07:53:55;3.50;;;0.90;;
59145;SDS011;44928;53.074;6.646;2023-08-31T07:56:21;5.53;;;1.20;;
59145;SDS011;44928;53.074;6.646;2023-08-31T07:58:49;5.00;;;0.88;;
59145;SDS011;44928;53.074;6.646;2023-08-31T08:01:15;7.20;;;1.15;;
59145;SDS011;44928;53.074;6.646;2023-08-31T08:03:41;5.50;;;1.17;;
59145;SDS011;44928;53.074;6.646;2023-08-31T08:06:07;6.75;;;1.23;;
59145;SDS011;44928;53.074;6.646;2023-08-31T08:08:33;7.95;;;1.02;;
59145;SDS011;44928;53.074;6.646;2023-08-31T08:10:59;7.03;;;1.13;;
59145;SDS011;44928;53.074;6.646;2023-08-31T08:13:25;3.38;;;0.70;;
59145;SDS011;44928;53.074;6.646;2023-08-31T08:15:51;6.53;;;1.05;;
59145;SDS011;44928;53.074;6.646;2023-08-31T08:18:16;4.38;;;0.90;;
59145;SDS011;44928;53.074;6.646;2023-08-31T08:20:42;5.78;;;1.08;;
59145;SDS011;44928;53.074;6.646;2023-08-31T08:23:08;5.20;;;0.90;;
59145;SDS011;44928;53.074;6.646;2023-08-31T08:25:34;5.72;;;0.85;;
59145;SDS011;44928;53.074;6.646;2023-08-31T08:28:00;6.32;;;1.20;;
59145;SDS011;44928;53.074;6.646;2023-08-31T08:30:25;4.80;;;0.90;;
59145;SDS011;44928;53.074;6.646;2023-08-31T08:32:51;4.30;;;1.10;;
59145;SDS011;44928;53.074;6.646;2023-08-31T08:35:17;6.65;;;1.50;;
59145;SDS011;44928;53.074;6.646;2023-08-31T08:37:43;7.15;;;1.10;;
59145;SDS011;44928;53.074;6.646;2023-08-31T08:40:09;5.30;;;1.33;;
59145;SDS011;44928;53.074;6.646;2023-08-31T08:42:38;4.80;;;1.10;;
59145;SDS011;44928;53.074;6.646;2023-08-31T08:47:44;4.85;;;1.00;;
59145;SDS011;44928;53.074;6.646;2023-08-31T08:50:11;5.82;;;1.23;;
59145;SDS011;44928;53.074;6.646;2023-08-31T08:52:41;4.45;;;1.23;;
59145;SDS011;44928;53.074;6.646;2023-08-31T08:55:07;4.20;;;0.82;;
59145;SDS011;44928;53.074;6.646;2023-08-31T08:57:34;5.93;;;1.00;;
59145;SDS011;44928;53.074;6.646;2023-08-31T09:00:01;4.10;;;0.80;;
59145;SDS011;44928;53.074;6.646;2023-08-31T09:02:28;3.03;;;0.80;;
59145;SDS011;44928;53.074;6.646;2023-08-31T09:04:54;5.78;;;0.95;;
59145;SDS011;44928;53.074;6.646;2023-08-31T09:07:23;3.22;;;0.80;;
59145;SDS011;44928;53.074;6.646;2023-08-31T09:09:53;3.53;;;0.75;;
59145;SDS011;44928;53.074;6.646;2023-08-31T09:12:23;4.93;;;0.88;;
59145;SDS011;44928;53.074;6.646;2023-08-31T09:15:02;5.88;;;0.80;;
59145;SDS011;44928;53.074;6.646;2023-08-31T09:17:39;3.00;;;0.70;;
59145;SDS011;44928;53.074;6.646;2023-08-31T09:20:07;3.85;;;0.80;;
59145;SDS011;44928;53.074;6.646;2023-08-31T09:22:34;4.65;;;1.10;;
59145;SDS011;44928;53.074;6.646;2023-08-31T09:25:00;4.68;;;0.80;;
59145;SDS011;44928;53.074;6.646;2023-08-31T09:27:26;4.10;;;0.68;;
59145;SDS011;44928;53.074;6.646;2023-08-31T09:29:55;4.30;;;0.77;;
59145;SDS011;44928;53.074;6.646;2023-08-31T09:32:21;4.63;;;1.02;;
59145;SDS011;44928;53.074;6.646;2023-08-31T09:34:47;5.60;;;1.10;;
59145;SDS011;44928;53.074;6.646;2023-08-31T09:37:15;4.10;;;0.70;;
59145;SDS011;44928;53.074;6.646;2023-08-31T09:39:41;3.35;;;0.60;;
59145;SDS011;44928;53.074;6.646;2023-08-31T09:42:07;2.95;;;0.85;;
59145;SDS011;44928;53.074;6.646;2023-08-31T09:44:34;1.42;;;0.50;;
59145;SDS011;44928;53.074;6.646;2023-08-31T09:47:06;3.83;;;0.55;;
59145;SDS011;44928;53.074;6.646;2023-08-31T09:49:33;3.00;;;0.60;;
59145;SDS011;44928;53.074;6.646;2023-08-31T09:52:00;2.28;;;0.47;;
59145;SDS011;44928;53.074;6.646;2023-08-31T09:54:28;7.95;;;1.00;;
59145;SDS011;44928;53.074;6.646;2023-08-31T09:56:54;2.28;;;0.75;;
59145;SDS011;44928;53.074;6.646;2023-08-31T09:59:24;5.07;;;0.88;;
59145;SDS011;44928;53.074;6.646;2023-08-31T10:01:50;3.63;;;0.90;;
59145;SDS011;44928;53.074;6.646;2023-08-31T10:04:16;2.55;;;0.70;;
59145;SDS011;44928;53.074;6.646;2023-08-31T10:06:42;3.22;;;0.70;;
59145;SDS011;44928;53.074;6.646;2023-08-31T10:09:09;5.60;;;1.08;;
59145;SDS011;44928;53.074;6.646;2023-08-31T10:11:34;4.90;;;0.80;;
59145;SDS011;44928;53.074;6.646;2023-08-31T10:14:02;4.72;;;0.90;;
59145;SDS011;44928;53.074;6.646;2023-08-31T10:16:29;3.08;;;0.80;;
59145;SDS011;44928;53.074;6.646;2023-08-31T10:18:55;4.93;;;0.98;;
59145;SDS011;44928;53.074;6.646;2023-08-31T10:21:21;3.70;;;0.82;;
59145;SDS011;44928;53.074;6.646;2023-08-31T10:23:48;2.53;;;0.63;;
59145;SDS011;44928;53.074;6.646;2023-08-31T10:28:54;5.90;;;0.90;;
59145;SDS011;44928;53.074;6.646;2023-08-31T10:31:22;5.18;;;1.17;;
59145;SDS011;44928;53.074;6.646;2023-08-31T10:36:44;6.90;;;2.70;;
59145;SDS011;44928;53.074;6.646;2023-08-31T10:39:14;5.32;;;2.08;;
59145;SDS011;44928;53.074;6.646;2023-08-31T10:41:51;5.70;;;1.20;;
59145;SDS011;44928;53.074;6.646;2023-08-31T10:44:19;6.68;;;2.00;;
59145;SDS011;44928;53.074;6.646;2023-08-31T10:46:47;6.10;;;1.60;;
59145;SDS011;44928;53.074;6.646;2023-08-31T10:49:14;5.75;;;1.70;;
59145;SDS011;44928;53.074;6.646;2023-08-31T10:51:49;4.60;;;0.90;;
59145;SDS011;44928;53.074;6.646;2023-08-31T10:54:32;4.03;;;0.95;;
59145;SDS011;44928;53.074;6.646;2023-08-31T10:57:03;3.40;;;0.90;;
59145;SDS011;44928;53.074;6.646;2023-08-31T10:59:52;3.25;;;0.85;;
59145;SDS011;44928;53.074;6.646;2023-08-31T11:02:34;3.30;;;0.80;;
59145;SDS011;44928;53.074;6.646;2023-08-31T11:07:37;4.38;;;0.98;;
59145;SDS011;44928;53.074;6.646;2023-08-31T11:10:12;4.57;;;0.90;;
59145;SDS011;44928;53.074;6.646;2023-08-31T11:12:38;3.13;;;0.80;;
59145;SDS011;44928;53.074;6.646;2023-08-31T11:15:05;3.45;;;0.80;;
59145;SDS011;44928;53.074;6.646;2023-08-31T11:17:33;3.25;;;0.70;;
59145;SDS011;44928;53.074;6.646;2023-08-31T11:19:59;2.67;;;0.63;;
59145;SDS011;44928;53.074;6.646;2023-08-31T11:22:25;4.60;;;0.70;;
59145;SDS011;44928;53.074;6.646;2023-08-31T11:24:52;4.75;;;0.90;;
59145;SDS011;44928;53.074;6.646;2023-08-31T11:27:19;3.00;;;0.60;;
59145;SDS011;44928;53.074;6.646;2023-08-31T11:29:45;3.83;;;0.80;;
59145;SDS011;44928;53.074;6.646;2023-08-31T11:32:11;2.30;;;0.60;;
59145;SDS011;44928;53.074;6.646;2023-08-31T11:34:41;4.47;;;0.90;;
59145;SDS011;44928;53.074;6.646;2023-08-31T11:37:08;5.43;;;1.05;;
59145;SDS011;44928;53.074;6.646;2023-08-31T11:39:34;1.90;;;0.50;;
59145;SDS011;44928;53.074;6.646;2023-08-31T11:42:02;6.55;;;1.00;;
59145;SDS011;44928;53.074;6.646;2023-08-31T11:44:27;4.15;;;0.70;;
59145;SDS011;44928;53.074;6.646;2023-08-31T11:46:53;5.30;;;0.80;;
59145;SDS011;44928;53.074;6.646;2023-08-31T11:49:19;4.82;;;0.85;;
59145;SDS011;44928;53.074;6.646;2023-08-31T11:51:47;5.53;;;0.93;;
59145;SDS011;44928;53.074;6.646;2023-08-31T11:54:16;4.68;;;1.08;;
59145;SDS011;44928;53.074;6.646;2023-08-31T11:56:43;3.78;;;0.70;;
59145;SDS011;44928;53.074;6.646;2023-08-31T11:59:16;4.47;;;1.15;;
59145;SDS011;44928;53.074;6.646;2023-08-31T12:01:43;5.35;;;0.90;;
59145;SDS011;44928;53.074;6.646;2023-08-31T12:04:14;2.45;;;0.70;;
59145;SDS011;44928;53.074;6.646;2023-08-31T12:06:40;5.63;;;0.85;;
59145;SDS011;44928;53.074;6.646;2023-08-31T12:09:10;3.88;;;0.82;;
59145;SDS011;44928;53.074;6.646;2023-08-31T12:11:36;5.75;;;1.00;;
59145;SDS011;44928;53.074;6.646;2023-08-31T12:14:02;4.15;;;0.80;;
59145;SDS011;44928;53.074;6.646;2023-08-31T12:16:32;3.22;;;0.77;;
59145;SDS011;44928;53.074;6.646;2023-08-31T12:19:01;4.68;;;1.10;;
59145;SDS011;44928;53.074;6.646;2023-08-31T12:21:29;3.78;;;0.88;;
59145;SDS011;44928;53.074;6.646;2023-08-31T12:23:59;4.53;;;1.00;;
59145;SDS011;44928;53.074;6.646;2023-08-31T12:26:25;3.05;;;0.77;;
59145;SDS011;44928;53.074;6.646;2023-08-31T12:28:52;4.90;;;0.80;;
59145;SDS011;44928;53.074;6.646;2023-08-31T12:31:17;4.43;;;0.82;;
59145;SDS011;44928;53.074;6.646;2023-08-31T12:33:44;4.03;;;0.70;;
59145;SDS011;44928;53.074;6.646;2023-08-31T12:36:09;3.30;;;0.65;;
59145;SDS011;44928;53.074;6.646;2023-08-31T12:38:35;4.03;;;0.98;;
59145;SDS011;44928;53.074;6.646;2023-08-31T12:41:01;4.63;;;1.00;;
59145;SDS011;44928;53.074;6.646;2023-08-31T12:43:28;5.18;;;0.95;;
59145;SDS011;44928;53.074;6.646;2023-08-31T12:45:56;5.90;;;1.10;;
59145;SDS011;44928;53.074;6.646;2023-08-31T12:48:23;4.38;;;1.10;;
59145;SDS011;44928;53.074;6.646;2023-08-31T12:50:49;7.35;;;1.27;;
59145;SDS011;44928;53.074;6.646;2023-08-31T12:53:15;3.42;;;0.63;;
59145;SDS011;44928;53.074;6.646;2023-08-31T12:55:41;4.78;;;1.05;;
59145;SDS011;44928;53.074;6.646;2023-08-31T12:58:07;3.33;;;0.70;;
59145;SDS011;44928;53.074;6.646;2023-08-31T13:00:33;3.53;;;0.85;;
59145;SDS011;44928;53.074;6.646;2023-08-31T13:02:59;4.47;;;1.00;;
59145;SDS011;44928;53.074;6.646;2023-08-31T13:05:26;5.22;;;1.00;;
59145;SDS011;44928;53.074;6.646;2023-08-31T13:07:54;4.38;;;0.80;;
59145;SDS011;44928;53.074;6.646;2023-08-31T13:10:20;5.28;;;1.00;;
59145;SDS011;44928;53.074;6.646;2023-08-31T13:12:46;4.30;;;1.08;;
59145;SDS011;44928;53.074;6.646;2023-08-31T13:15:12;3.97;;;0.93;;
59145;SDS011;44928;53.074;6.646;2023-08-31T13:17:38;3.58;;;1.05;;
59145;SDS011;44928;53.074;6.646;2023-08-31T13:20:05;4.85;;;0.95;;
59145;SDS011;44928;53.074;6.646;2023-08-31T13:22:31;4.43;;;1.17;;
59145;SDS011;44928;53.074;6.646;2023-08-31T13:24:57;4.85;;;0.95;;
59145;SDS011;44928;53.074;6.646;2023-08-31T13:27:24;6.75;;;1.10;;
59145;SDS011;44928;53.074;6.646;2023-08-31T13:29:50;6.43;;;1.15;;
59145;SDS011;44928;53.074;6.646;2023-08-31T13:32:16;6.90;;;1.10;;
59145;SDS011;44928;53.074;6.646;2023-08-31T13:34:42;6.05;;;1.40;;
59145;SDS011;44928;53.074;6.646;2023-08-31T13:37:08;6.32;;;1.00;;
59145;SDS011;44928;53.074;6.646;2023-08-31T13:39:34;7.35;;;1.20;;
59145;SDS011;44928;53.074;6.646;2023-08-31T13:42:05;5.72;;;1.20;;
59145;SDS011;44928;53.074;6.646;2023-08-31T13:44:32;4.45;;;1.02;;
59145;SDS011;44928;53.074;6.646;2023-08-31T13:46:58;6.32;;;1.23;;
59145;SDS011;44928;53.074;6.646;2023-08-31T13:49:23;5.35;;;1.00;;
59145;SDS011;44928;53.074;6.646;2023-08-31T13:51:49;6.43;;;0.98;;
59145;SDS011;44928;53.074;6.646;2023-08-31T13:54:15;7.15;;;1.00;;
59145;SDS011;44928;53.074;6.646;2023-08-31T13:56:41;6.22;;;1.20;;
59145;SDS011;44928;53.074;6.646;2023-08-31T13:59:08;4.45;;;1.20;;
59145;SDS011;44928;53.074;6.646;2023-08-31T14:01:34;3.50;;;0.98;;
59145;SDS011;44928;53.074;6.646;2023-08-31T14:04:01;5.70;;;1.00;;
59145;SDS011;44928;53.074;6.646;2023-08-31T14:06:28;5.88;;;1.20;;
59145;SDS011;44928;53.074;6.646;2023-08-31T14:08:55;4.07;;;1.05;;
59145;SDS011;44928;53.074;6.646;2023-08-31T14:11:20;5.43;;;1.30;;
59145;SDS011;44928;53.074;6.646;2023-08-31T14:13:46;5.28;;;1.10;;
59145;SDS011;44928;53.074;6.646;2023-08-31T14:16:12;6.03;;;1.33;;
59145;SDS011;44928;53.074;6.646;2023-08-31T14:18:38;6.82;;;1.33;;
59145;SDS011;44928;53.074;6.646;2023-08-31T14:21:04;5.15;;;1.05;;
59145;SDS011;44928;53.074;6.646;2023-08-31T14:23:30;7.63;;;1.25;;
59145;SDS011;44928;53.074;6.646;2023-08-31T14:26:02;6.13;;;1.20;;
59145;SDS011;44928;53.074;6.646;2023-08-31T14:28:29;5.53;;;1.33;;
59145;SDS011;44928;53.074;6.646;2023-08-31T14:30:55;4.30;;;1.10;;
59145;SDS011;44928;53.074;6.646;2023-08-31T14:33:20;4.10;;;0.80;;
59145;SDS011;44928;53.074;6.646;2023-08-31T14:35:49;4.90;;;1.10;;
59145;SDS011;44928;53.074;6.646;2023-08-31T14:38:20;5.65;;;1.00;;
59145;SDS011;44928;53.074;6.646;2023-08-31T14:40:47;5.78;;;1.08;;
59145;SDS011;44928;53.074;6.646;2023-08-31T14:43:12;5.50;;;1.02;;
59145;SDS011;44928;53.074;6.646;2023-08-31T14:45:38;5.20;;;1.33;;
59145;SDS011;44928;53.074;6.646;2023-08-31T14:48:04;6.05;;;1.17;;
59145;SDS011;44928;53.074;6.646;2023-08-31T14:50:30;4.70;;;1.00;;
59145;SDS011;44928;53.074;6.646;2023-08-31T14:52:56;5.07;;;1.00;;
59145;SDS011;44928;53.074;6.646;2023-08-31T14:55:22;5.32;;;1.00;;
59145;SDS011;44928;53.074;6.646;2023-08-31T14:57:48;5.45;;;1.27;;
59145;SDS011;44928;53.074;6.646;2023-08-31T15:00:14;4.47;;;0.95;;
59145;SDS011;44928;53.074;6.646;2023-08-31T15:02:40;3.22;;;0.90;;